sensor_id;sensor_type;location;lat;lon;timestamp;temperature;humidity
48488;DHT22;34289;48.572;13.378;2023-04-01T00:00:57;9.60;99.90
48488;DHT22;34289;48.572;13.378;2023-04-01T00:03:24;10.10;99.90
48488;DHT22;34289;48.572;13.378;2023-04-01T00:05:50;9.10;99.90
48488;DHT22;34289;48.572;13.378;2023-04-01T00:08:16;9.30;99.90
48488;DHT22;34289;48.572;13.378;2023-04-01T00:10:42;9.20;99.90
48488;DHT22;34289;48.572;13.378;2023-04-01T00:13:08;9.80;99.90
48488;DHT22;34289;48.572;13.378;2023-04-01T00:15:33;10.50;99.90
48488;DHT22;34289;48.572;13.378;2023-04-01T00:17:59;9.20;99.90
48488;DHT22;34289;48.572;13.378;2023-04-01T00:20:26;8.90;99.90
48488;DHT22;34289;48.572;13.378;2023-04-01T00:22:52;8.90;99.90
48488;DHT22;34289;48.572;13.378;2023-04-01T00:25:18;8.90;99.90
48488;DHT22;34289;48.572;13.378;2023-04-01T00:27:44;9.50;99.90
48488;DHT22;34289;48.572;13.378;2023-04-01T00:30:10;9.00;99.90
48488;DHT22;34289;48.572;13.378;2023-04-01T00:32:35;9.10;99.90
48488;DHT22;34289;48.572;13.378;2023-04-01T00:35:01;9.00;99.90
48488;DHT22;34289;48.572;13.378;2023-04-01T00:37:27;9.10;99.90
48488;DHT22;34289;48.572;13.378;2023-04-01T00:39:53;9.50;99.90
48488;DHT22;34289;48.572;13.378;2023-04-01T00:42:20;9.10;99.90
48488;DHT22;34289;48.572;13.378;2023-04-01T00:44:49;8.80;99.90
48488;DHT22;34289;48.572;13.378;2023-04-01T00:47:16;9.90;99.90
48488;DHT22;34289;48.572;13.378;2023-04-01T00:49:45;9.80;99.90
48488;DHT22;34289;48.572;13.378;2023-04-01T00:52:15;9.20;99.90
48488;DHT22;34289;48.572;13.378;2023-04-01T00:54:43;9.80;99.90
48488;DHT22;34289;48.572;13.378;2023-04-01T00:57:15;9.10;99.90
48488;DHT22;34289;48.572;13.378;2023-04-01T00:59:45;9.80;99.90
48488;DHT22;34289;48.572;13.378;2023-04-01T01:02:13;9.50;99.90
48488;DHT22;34289;48.572;13.378;2023-04-01T01:04:40;9.30;99.90
48488;DHT22;34289;48.572;13.378;2023-04-01T01:07:31;9.30;99.90
48488;DHT22;34289;48.572;13.378;2023-04-01T01:10:24;9.20;99.90
48488;DHT22;34289;48.572;13.378;2023-04-01T01:16:14;9.30;99.90
48488;DHT22;34289;48.572;13.378;2023-04-01T01:18:51;9.30;99.90
48488;DHT22;34289;48.572;13.378;2023-04-01T01:21:49;9.90;99.90
48488;DHT22;34289;48.572;13.378;2023-04-01T01:24:34;9.40;99.90
48488;DHT22;34289;48.572;13.378;2023-04-01T01:27:11;9.30;99.90
48488;DHT22;34289;48.572;13.378;2023-04-01T01:36:04;9.20;99.90
48488;DHT22;34289;48.572;13.378;2023-04-01T01:38:32;9.30;99.90
48488;DHT22;34289;48.572;13.378;2023-04-01T01:40:59;7.80;99.90
48488;DHT22;34289;48.572;13.378;2023-04-01T01:43:33;9.70;99.90
48488;DHT22;34289;48.572;13.378;2023-04-01T01:46:05;9.70;99.90
48488;DHT22;34289;48.572;13.378;2023-04-01T01:48:32;9.70;99.90
48488;DHT22;34289;48.572;13.378;2023-04-01T01:50:59;9.20;99.90
48488;DHT22;34289;48.572;13.378;2023-04-01T01:53:25;9.80;99.90
48488;DHT22;34289;48.572;13.378;2023-04-01T01:55:50;9.60;99.90
48488;DHT22;34289;48.572;13.378;2023-04-01T01:58:33;9.50;99.90
48488;DHT22;34289;48.572;13.378;2023-04-01T02:01:09;9.30;99.90
48488;DHT22;34289;48.572;13.378;2023-04-01T02:03:39;9.60;99.90
48488;DHT22;34289;48.572;13.378;2023-04-01T02:06:12;10.50;99.90
48488;DHT22;34289;48.572;13.378;2023-04-01T02:08:59;9.30;99.90
48488;DHT22;34289;48.572;13.378;2023-04-01T02:11:51;9.40;99.90
48488;DHT22;34289;48.572;13.378;2023-04-01T02:14:28;9.10;99.90
48488;DHT22;34289;48.572;13.378;2023-04-01T02:20:06;9.70;99.90
48488;DHT22;34289;48.572;13.378;2023-04-01T02:22:43;9.20;99.90
48488;DHT22;34289;48.572;13.378;2023-04-01T02:25:13;9.30;99.90
48488;DHT22;34289;48.572;13.378;2023-04-01T02:27:41;9.60;99.90
48488;DHT22;34289;48.572;13.378;2023-04-01T02:30:08;9.80;99.90
48488;DHT22;34289;48.572;13.378;2023-04-01T02:32:35;9.30;99.90
48488;DHT22;34289;48.572;13.378;2023-04-01T02:35:10;9.30;99.90
48488;DHT22;34289;48.572;13.378;2023-04-01T02:37:38;9.30;99.90
48488;DHT22;34289;48.572;13.378;2023-04-01T02:40:07;9.60;99.90
48488;DHT22;34289;48.572;13.378;2023-04-01T02:42:33;9.30;99.90
48488;DHT22;34289;48.572;13.378;2023-04-01T02:44:59;9.20;99.90
48488;DHT22;34289;48.572;13.378;2023-04-01T02:47:25;9.70;99.90
48488;DHT22;34289;48.572;13.378;2023-04-01T02:49:51;9.80;99.90
48488;DHT22;34289;48.572;13.378;2023-04-01T02:52:26;9.70;99.90
48488;DHT22;34289;48.572;13.378;2023-04-01T02:54:52;9.20;99.90
48488;DHT22;34289;48.572;13.378;2023-04-01T02:57:18;9.60;99.90
48488;DHT22;34289;48.572;13.378;2023-04-01T02:59:43;9.60;99.90
48488;DHT22;34289;48.572;13.378;2023-04-01T03:02:09;9.40;99.90
48488;DHT22;34289;48.572;13.378;2023-04-01T03:04:35;9.00;99.90
48488;DHT22;34289;48.572;13.378;2023-04-01T03:07:00;9.00;99.90
48488;DHT22;34289;48.572;13.378;2023-04-01T03:09:26;9.80;99.90
48488;DHT22;34289;48.572;13.378;2023-04-01T03:11:52;9.00;99.90
48488;DHT22;34289;48.572;13.378;2023-04-01T03:14:17;9.60;99.90
48488;DHT22;34289;48.572;13.378;2023-04-01T03:16:43;9.30;99.90
48488;DHT22;34289;48.572;13.378;2023-04-01T03:19:08;9.40;99.90
48488;DHT22;34289;48.572;13.378;2023-04-01T03:21:34;9.20;99.90
48488;DHT22;34289;48.572;13.378;2023-04-01T03:24:00;8.40;99.90
48488;DHT22;34289;48.572;13.378;2023-04-01T03:26:25;9.40;99.90
48488;DHT22;34289;48.572;13.378;2023-04-01T03:28:52;9.30;99.90
48488;DHT22;34289;48.572;13.378;2023-04-01T03:31:18;9.20;99.90
48488;DHT22;34289;48.572;13.378;2023-04-01T03:33:44;9.40;99.90
48488;DHT22;34289;48.572;13.378;2023-04-01T03:36:10;9.40;99.90
48488;DHT22;34289;48.572;13.378;2023-04-01T03:38:38;9.00;99.90
48488;DHT22;34289;48.572;13.378;2023-04-01T03:41:03;9.30;99.90
48488;DHT22;34289;48.572;13.378;2023-04-01T03:43:29;9.10;99.90
48488;DHT22;34289;48.572;13.378;2023-04-01T03:45:55;9.20;99.90
48488;DHT22;34289;48.572;13.378;2023-04-01T03:48:23;9.60;99.90
48488;DHT22;34289;48.572;13.378;2023-04-01T03:50:48;9.00;99.90
48488;DHT22;34289;48.572;13.378;2023-04-01T03:53:14;9.40;99.90
48488;DHT22;34289;48.572;13.378;2023-04-01T03:55:41;9.10;99.90
48488;DHT22;34289;48.572;13.378;2023-04-01T03:58:07;9.30;99.90
48488;DHT22;34289;48.572;13.378;2023-04-01T04:00:33;9.40;99.90
48488;DHT22;34289;48.572;13.378;2023-04-01T04:03:00;9.20;99.90
48488;DHT22;34289;48.572;13.378;2023-04-01T04:05:26;9.50;99.90
48488;DHT22;34289;48.572;13.378;2023-04-01T04:07:52;9.00;99.90
48488;DHT22;34289;48.572;13.378;2023-04-01T04:10:19;9.60;99.90
48488;DHT22;34289;48.572;13.378;2023-04-01T04:12:45;9.40;99.90
48488;DHT22;34289;48.572;13.378;2023-04-01T04:15:11;9.00;99.90
48488;DHT22;34289;48.572;13.378;2023-04-01T04:17:37;9.30;99.90
48488;DHT22;34289;48.572;13.378;2023-04-01T04:20:03;9.30;99.90
48488;DHT22;34289;48.572;13.378;2023-04-01T04:22:29;8.90;99.90
48488;DHT22;34289;48.572;13.378;2023-04-01T04:24:54;9.00;99.90
48488;DHT22;34289;48.572;13.378;2023-04-01T04:27:20;9.20;99.90
48488;DHT22;34289;48.572;13.378;2023-04-01T04:29:46;9.20;99.90
48488;DHT22;34289;48.572;13.378;2023-04-01T04:32:11;9.20;99.90
48488;DHT22;34289;48.572;13.378;2023-04-01T04:34:37;9.20;99.90
48488;DHT22;34289;48.572;13.378;2023-04-01T04:37:03;10.00;99.90
48488;DHT22;34289;48.572;13.378;2023-04-01T04:39:29;9.00;99.90
48488;DHT22;34289;48.572;13.378;2023-04-01T04:41:54;9.00;99.90
48488;DHT22;34289;48.572;13.378;2023-04-01T04:44:20;9.00;99.90
48488;DHT22;34289;48.572;13.378;2023-04-01T04:46:45;10.10;99.90
48488;DHT22;34289;48.572;13.378;2023-04-01T04:49:11;9.30;99.90
48488;DHT22;34289;48.572;13.378;2023-04-01T04:51:37;9.00;99.90
48488;DHT22;34289;48.572;13.378;2023-04-01T04:54:03;9.70;99.90
48488;DHT22;34289;48.572;13.378;2023-04-01T04:56:29;9.10;99.90
48488;DHT22;34289;48.572;13.378;2023-04-01T04:58:56;9.30;99.90
48488;DHT22;34289;48.572;13.378;2023-04-01T05:01:22;9.50;99.90
48488;DHT22;34289;48.572;13.378;2023-04-01T05:03:47;9.40;99.90
48488;DHT22;34289;48.572;13.378;2023-04-01T05:06:14;9.70;99.90
48488;DHT22;34289;48.572;13.378;2023-04-01T05:08:41;9.10;99.90
48488;DHT22;34289;48.572;13.378;2023-04-01T05:13:36;8.90;99.90
48488;DHT22;34289;48.572;13.378;2023-04-01T05:16:02;9.60;99.90
48488;DHT22;34289;48.572;13.378;2023-04-01T05:18:28;9.40;99.90
48488;DHT22;34289;48.572;13.378;2023-04-01T05:20:54;9.90;99.90
48488;DHT22;34289;48.572;13.378;2023-04-01T05:23:21;9.30;99.90
48488;DHT22;34289;48.572;13.378;2023-04-01T05:25:48;8.90;99.90
48488;DHT22;34289;48.572;13.378;2023-04-01T05:28:15;9.50;99.90
48488;DHT22;34289;48.572;13.378;2023-04-01T05:30:42;8.70;99.90
48488;DHT22;34289;48.572;13.378;2023-04-01T05:33:09;9.70;99.90
48488;DHT22;34289;48.572;13.378;2023-04-01T05:35:35;8.90;99.90
48488;DHT22;34289;48.572;13.378;2023-04-01T05:38:01;9.30;99.90
48488;DHT22;34289;48.572;13.378;2023-04-01T05:40:28;9.50;99.90
48488;DHT22;34289;48.572;13.378;2023-04-01T05:42:53;8.90;99.90
48488;DHT22;34289;48.572;13.378;2023-04-01T05:45:19;10.10;99.90
48488;DHT22;34289;48.572;13.378;2023-04-01T05:47:45;9.50;99.90
48488;DHT22;34289;48.572;13.378;2023-04-01T05:50:11;9.40;99.90
48488;DHT22;34289;48.572;13.378;2023-04-01T05:52:37;9.10;99.90
48488;DHT22;34289;48.572;13.378;2023-04-01T05:55:03;9.10;99.90
48488;DHT22;34289;48.572;13.378;2023-04-01T05:57:29;9.30;99.90
48488;DHT22;34289;48.572;13.378;2023-04-01T05:59:55;10.10;99.90
48488;DHT22;34289;48.572;13.378;2023-04-01T06:02:20;9.70;99.90
48488;DHT22;34289;48.572;13.378;2023-04-01T06:04:46;10.30;99.90
48488;DHT22;34289;48.572;13.378;2023-04-01T06:07:14;9.40;99.90
48488;DHT22;34289;48.572;13.378;2023-04-01T06:09:41;10.30;99.90
48488;DHT22;34289;48.572;13.378;2023-04-01T06:12:35;10.10;99.90
48488;DHT22;34289;48.572;13.378;2023-04-01T06:17:57;9.40;99.90
48488;DHT22;34289;48.572;13.378;2023-04-01T06:23:34;9.40;99.90
48488;DHT22;34289;48.572;13.378;2023-04-01T06:43:33;9.60;99.90
48488;DHT22;34289;48.572;13.378;2023-04-01T06:46:36;9.60;99.90
48488;DHT22;34289;48.572;13.378;2023-04-01T06:52:23;9.70;99.90
48488;DHT22;34289;48.572;13.378;2023-04-01T06:55:38;9.70;99.90
48488;DHT22;34289;48.572;13.378;2023-04-01T06:58:16;9.80;99.90
48488;DHT22;34289;48.572;13.378;2023-04-01T07:00:46;9.70;99.90
48488;DHT22;34289;48.572;13.378;2023-04-01T07:03:21;9.70;99.90
48488;DHT22;34289;48.572;13.378;2023-04-01T07:05:48;9.60;99.90
48488;DHT22;34289;48.572;13.378;2023-04-01T07:08:23;9.60;99.90
48488;DHT22;34289;48.572;13.378;2023-04-01T07:11:05;9.70;99.90
48488;DHT22;34289;48.572;13.378;2023-04-01T07:13:57;9.70;99.90
48488;DHT22;34289;48.572;13.378;2023-04-01T07:16:32;10.60;99.90
48488;DHT22;34289;48.572;13.378;2023-04-01T07:21:48;10.20;99.90
48488;DHT22;34289;48.572;13.378;2023-04-01T07:24:21;10.40;99.90
48488;DHT22;34289;48.572;13.378;2023-04-01T07:26:47;10.60;99.90
48488;DHT22;34289;48.572;13.378;2023-04-01T07:29:14;11.40;99.90
48488;DHT22;34289;48.572;13.378;2023-04-01T07:37:17;10.80;99.90
48488;DHT22;34289;48.572;13.378;2023-04-01T07:47:59;11.40;99.90
48488;DHT22;34289;48.572;13.378;2023-04-01T07:50:40;11.40;99.90
48488;DHT22;34289;48.572;13.378;2023-04-01T07:53:25;11.80;99.90
48488;DHT22;34289;48.572;13.378;2023-04-01T07:56:12;11.50;99.90
48488;DHT22;34289;48.572;13.378;2023-04-01T07:59:11;11.70;99.90
48488;DHT22;34289;48.572;13.378;2023-04-01T08:04:36;11.50;99.90
48488;DHT22;34289;48.572;13.378;2023-04-01T08:07:18;12.00;99.90
48488;DHT22;34289;48.572;13.378;2023-04-01T08:10:10;11.90;99.90
48488;DHT22;34289;48.572;13.378;2023-04-01T08:20:52;12.00;99.90
48488;DHT22;34289;48.572;13.378;2023-04-01T08:26:20;11.70;99.90
48488;DHT22;34289;48.572;13.378;2023-04-01T08:33:55;11.70;99.90
48488;DHT22;34289;48.572;13.378;2023-04-01T08:36:32;11.60;99.90
48488;DHT22;34289;48.572;13.378;2023-04-01T08:39:02;12.10;99.90
48488;DHT22;34289;48.572;13.378;2023-04-01T08:52:14;11.20;99.90
48488;DHT22;34289;48.572;13.378;2023-04-01T09:08:24;11.60;99.90
48488;DHT22;34289;48.572;13.378;2023-04-01T09:19:14;11.40;99.90
48488;DHT22;34289;48.572;13.378;2023-04-01T09:31:03;13.10;99.90
48488;DHT22;34289;48.572;13.378;2023-04-01T09:36:49;14.80;99.90
48488;DHT22;34289;48.572;13.378;2023-04-01T09:44:50;14.20;99.90
48488;DHT22;34289;48.572;13.378;2023-04-01T09:52:43;13.40;99.90
48488;DHT22;34289;48.572;13.378;2023-04-01T10:12:40;13.80;99.90
48488;DHT22;34289;48.572;13.378;2023-04-01T10:23:45;13.50;99.90
48488;DHT22;34289;48.572;13.378;2023-04-01T10:37:51;12.90;99.90
48488;DHT22;34289;48.572;13.378;2023-04-01T10:48:51;13.70;99.90
48488;DHT22;34289;48.572;13.378;2023-04-01T10:54:33;15.20;99.90
48488;DHT22;34289;48.572;13.378;2023-04-01T11:25:35;14.20;99.90
48488;DHT22;34289;48.572;13.378;2023-04-01T11:28:15;14.00;99.90
48488;DHT22;34289;48.572;13.378;2023-04-01T11:36:45;13.10;99.90
48488;DHT22;34289;48.572;13.378;2023-04-01T11:42:20;12.80;99.90
48488;DHT22;34289;48.572;13.378;2023-04-01T11:45:05;12.80;99.90
48488;DHT22;34289;48.572;13.378;2023-04-01T11:47:55;12.80;99.90
48488;DHT22;34289;48.572;13.378;2023-04-01T12:01:58;12.80;99.90
48488;DHT22;34289;48.572;13.378;2023-04-01T12:09:57;13.30;99.90
48488;DHT22;34289;48.572;13.378;2023-04-01T12:15:56;13.50;99.90
48488;DHT22;34289;48.572;13.378;2023-04-01T12:34:53;12.90;99.90
48488;DHT22;34289;48.572;13.378;2023-04-01T12:43:05;12.90;99.90
48488;DHT22;34289;48.572;13.378;2023-04-01T12:53:44;13.00;99.90
48488;DHT22;34289;48.572;13.378;2023-04-01T13:04:39;12.60;99.90
48488;DHT22;34289;48.572;13.378;2023-04-01T13:07:14;12.60;99.90
48488;DHT22;34289;48.572;13.378;2023-04-01T13:23:09;12.50;99.90
48488;DHT22;34289;48.572;13.378;2023-04-01T13:25:51;12.20;99.90
48488;DHT22;34289;48.572;13.378;2023-04-01T13:28:31;12.20;99.90
48488;DHT22;34289;48.572;13.378;2023-04-01T13:33:42;12.10;99.90
48488;DHT22;34289;48.572;13.378;2023-04-01T13:41:55;12.30;99.90
48488;DHT22;34289;48.572;13.378;2023-04-01T13:44:34;12.20;99.90
48488;DHT22;34289;48.572;13.378;2023-04-01T13:55:09;11.90;99.90
48488;DHT22;34289;48.572;13.378;2023-04-01T14:03:30;11.50;99.90
48488;DHT22;34289;48.572;13.378;2023-04-01T14:06:20;11.50;99.90
48488;DHT22;34289;48.572;13.378;2023-04-01T14:08:55;11.50;99.90
48488;DHT22;34289;48.572;13.378;2023-04-01T14:11:26;11.90;99.90
48488;DHT22;34289;48.572;13.378;2023-04-01T14:19:49;11.70;99.90
48488;DHT22;34289;48.572;13.378;2023-04-01T14:27:56;11.90;99.90
48488;DHT22;34289;48.572;13.378;2023-04-01T14:33:18;11.70;99.90
48488;DHT22;34289;48.572;13.378;2023-04-01T14:38:39;11.50;99.90
48488;DHT22;34289;48.572;13.378;2023-04-01T14:41:25;11.40;99.90
48488;DHT22;34289;48.572;13.378;2023-04-01T14:49:42;11.30;99.90
48488;DHT22;34289;48.572;13.378;2023-04-01T14:52:21;11.40;99.90
48488;DHT22;34289;48.572;13.378;2023-04-01T14:54:49;11.70;99.90
48488;DHT22;34289;48.572;13.378;2023-04-01T14:57:24;11.40;99.90
48488;DHT22;34289;48.572;13.378;2023-04-01T15:00:00;11.80;99.90
48488;DHT22;34289;48.572;13.378;2023-04-01T15:08:41;10.90;99.90
48488;DHT22;34289;48.572;13.378;2023-04-01T15:24:46;10.40;99.90
48488;DHT22;34289;48.572;13.378;2023-04-01T15:49:49;10.20;99.90
48488;DHT22;34289;48.572;13.378;2023-04-01T15:55:48;9.70;99.90
48488;DHT22;34289;48.572;13.378;2023-04-01T15:58:33;10.70;99.90
48488;DHT22;34289;48.572;13.378;2023-04-01T16:01:35;10.50;99.90
48488;DHT22;34289;48.572;13.378;2023-04-01T16:04:27;10.50;99.90
48488;DHT22;34289;48.572;13.378;2023-04-01T16:10:24;10.40;99.90
48488;DHT22;34289;48.572;13.378;2023-04-01T16:12:59;10.30;99.90
48488;DHT22;34289;48.572;13.378;2023-04-01T16:15:46;10.90;99.90
48488;DHT22;34289;48.572;13.378;2023-04-01T16:18:18;10.40;99.90
48488;DHT22;34289;48.572;13.378;2023-04-01T16:21:51;10.40;99.90
48488;DHT22;34289;48.572;13.378;2023-04-01T16:24:05;10.00;99.90
48488;DHT22;34289;48.572;13.378;2023-04-01T16:27:00;10.20;99.90
48488;DHT22;34289;48.572;13.378;2023-04-01T16:37:17;10.10;99.90
48488;DHT22;34289;48.572;13.378;2023-04-01T16:40:09;11.00;99.90
48488;DHT22;34289;48.572;13.378;2023-04-01T16:43:10;10.90;99.90
48488;DHT22;34289;48.572;13.378;2023-04-01T16:45:45;10.00;99.90
48488;DHT22;34289;48.572;13.378;2023-04-01T16:48:15;10.00;99.90
48488;DHT22;34289;48.572;13.378;2023-04-01T16:51:04;10.00;99.90
48488;DHT22;34289;48.572;13.378;2023-04-01T16:54:05;10.00;99.90
48488;DHT22;34289;48.572;13.378;2023-04-01T16:56:49;10.00;99.90
48488;DHT22;34289;48.572;13.378;2023-04-01T17:02:14;10.00;99.90
48488;DHT22;34289;48.572;13.378;2023-04-01T17:04:48;10.40;99.90
48488;DHT22;34289;48.572;13.378;2023-04-01T17:15:18;9.70;99.90
48488;DHT22;34289;48.572;13.378;2023-04-01T17:28:18;9.80;99.90
48488;DHT22;34289;48.572;13.378;2023-04-01T17:42:11;9.80;99.90
48488;DHT22;34289;48.572;13.378;2023-04-01T18:02:22;9.60;99.90
48488;DHT22;34289;48.572;13.378;2023-04-01T18:11:05;9.80;99.90
48488;DHT22;34289;48.572;13.378;2023-04-01T18:16:43;9.80;99.90
48488;DHT22;34289;48.572;13.378;2023-04-01T18:24:45;9.70;99.90
48488;DHT22;34289;48.572;13.378;2023-04-01T18:27:22;9.80;99.90
48488;DHT22;34289;48.572;13.378;2023-04-01T18:29:53;10.30;99.90
48488;DHT22;34289;48.572;13.378;2023-04-01T18:35:29;10.30;99.90
48488;DHT22;34289;48.572;13.378;2023-04-01T18:40:53;9.70;99.90
48488;DHT22;34289;48.572;13.378;2023-04-01T18:52:08;9.70;99.90
48488;DHT22;34289;48.572;13.378;2023-04-01T18:54:49;9.70;99.90
48488;DHT22;34289;48.572;13.378;2023-04-01T18:57:18;10.70;99.90
48488;DHT22;34289;48.572;13.378;2023-04-01T18:59:51;10.80;99.90
48488;DHT22;34289;48.572;13.378;2023-04-01T19:05:12;9.80;99.90
48488;DHT22;34289;48.572;13.378;2023-04-01T19:07:41;10.20;99.90
48488;DHT22;34289;48.572;13.378;2023-04-01T19:10:18;10.40;99.90
48488;DHT22;34289;48.572;13.378;2023-04-01T19:15:31;9.40;99.90
48488;DHT22;34289;48.572;13.378;2023-04-01T19:18:35;9.60;99.90
48488;DHT22;34289;48.572;13.378;2023-04-01T19:38:21;9.80;99.90
48488;DHT22;34289;48.572;13.378;2023-04-01T19:40:57;9.50;99.90
48488;DHT22;34289;48.572;13.378;2023-04-01T19:44:09;9.50;99.90
48488;DHT22;34289;48.572;13.378;2023-04-01T19:49:37;11.10;99.90
48488;DHT22;34289;48.572;13.378;2023-04-01T19:52:33;9.30;99.90
48488;DHT22;34289;48.572;13.378;2023-04-01T20:00:44;9.40;99.90
48488;DHT22;34289;48.572;13.378;2023-04-01T20:06:09;9.40;99.90
48488;DHT22;34289;48.572;13.378;2023-04-01T20:09:05;9.50;99.90
48488;DHT22;34289;48.572;13.378;2023-04-01T20:12:07;9.30;99.90
48488;DHT22;34289;48.572;13.378;2023-04-01T20:14:54;9.50;99.90
48488;DHT22;34289;48.572;13.378;2023-04-01T20:27:56;9.20;99.90
48488;DHT22;34289;48.572;13.378;2023-04-01T20:33:28;9.30;99.90
48488;DHT22;34289;48.572;13.378;2023-04-01T20:50:57;9.20;99.90
48488;DHT22;34289;48.572;13.378;2023-04-01T20:53:43;9.30;99.90
48488;DHT22;34289;48.572;13.378;2023-04-01T21:05:00;9.20;99.90
48488;DHT22;34289;48.572;13.378;2023-04-01T21:07:45;9.30;99.90
48488;DHT22;34289;48.572;13.378;2023-04-01T21:10:27;9.20;99.90
48488;DHT22;34289;48.572;13.378;2023-04-01T21:21:39;9.30;99.90
48488;DHT22;34289;48.572;13.378;2023-04-01T21:32:46;9.20;99.90
48488;DHT22;34289;48.572;13.378;2023-04-01T21:35:27;9.10;99.90
48488;DHT22;34289;48.572;13.378;2023-04-01T21:38:23;9.90;99.90
48488;DHT22;34289;48.572;13.378;2023-04-01T21:44:02;9.10;99.90
48488;DHT22;34289;48.572;13.378;2023-04-01T21:49:27;9.10;99.90
48488;DHT22;34289;48.572;13.378;2023-04-01T22:06:37;9.10;99.90
48488;DHT22;34289;48.572;13.378;2023-04-01T22:12:12;9.00;99.90
48488;DHT22;34289;48.572;13.378;2023-04-01T22:25:56;8.90;99.90
48488;DHT22;34289;48.572;13.378;2023-04-01T22:31:11;8.90;99.90
48488;DHT22;34289;48.572;13.378;2023-04-01T22:42:43;8.90;99.90
48488;DHT22;34289;48.572;13.378;2023-04-01T22:55:34;8.80;99.90
48488;DHT22;34289;48.572;13.378;2023-04-01T22:58:14;8.90;99.90
48488;DHT22;34289;48.572;13.378;2023-04-01T23:00:45;9.50;99.90
48488;DHT22;34289;48.572;13.378;2023-04-01T23:03:22;9.60;99.90
48488;DHT22;34289;48.572;13.378;2023-04-01T23:05:53;9.10;99.90
48488;DHT22;34289;48.572;13.378;2023-04-01T23:11:23;8.80;99.90
48488;DHT22;34289;48.572;13.378;2023-04-01T23:17:09;8.80;99.90
48488;DHT22;34289;48.572;13.378;2023-04-01T23:19:49;8.80;99.90
48488;DHT22;34289;48.572;13.378;2023-04-01T23:38:16;9.70;99.90
48488;DHT22;34289;48.572;13.378;2023-04-01T23:43:23;8.70;99.90
48488;DHT22;34289;48.572;13.378;2023-04-01T23:45:50;8.70;99.90
48488;DHT22;34289;48.572;13.378;2023-04-01T23:48:16;8.80;99.90
48488;DHT22;34289;48.572;13.378;2023-04-01T23:50:45;9.30;99.90
48488;DHT22;34289;48.572;13.378;2023-04-01T23:53:18;8.90;99.90
48488;DHT22;34289;48.572;13.378;2023-04-01T23:55:46;9.50;99.90
